Time;durP1;ratioP1;P1;durP2;ratioP2;P2;SDS_P1;SDS_P2;PMS_P1;PMS_P2;Temp;Humidity;BMP_temperature;BMP_pressure;BME280_temperature;BME280_humidity;BME280_pressure;Samples;Min_cycle;Max_cycle;Signal;HPM_P1;HPM_P2
2023/04/10 00:01:04;;;;;;;19.98;14.63;;;14.10;66.50;;;;;;5078587;28;20055;-77
2023/04/10 00:03:30;;;;;;;18.05;13.70;;;14.00;66.30;;;;;;5078604;28;20387;-77
2023/04/10 00:05:56;;;;;;;19.08;13.77;;;14.00;66.20;;;;;;5096784;28;20031;-77
2023/04/10 00:08:23;;;;;;;19.05;13.95;;;14.00;66.20;;;;;;5062283;28;20115;-78
2023/04/10 00:10:49;;;;;;;20.17;13.90;;;14.00;66.20;;;;;;5078276;28;20073;-77
2023/04/10 00:13:15;;;;;;;20.38;13.43;;;13.90;66.40;;;;;;5096402;28;20028;-77
2023/04/10 00:15:41;;;;;;;18.02;12.70;;;13.90;66.70;;;;;;5061720;28;20043;-77
2023/04/10 00:18:07;;;;;;;18.80;13.38;;;13.90;66.80;;;;;;5078873;28;20467;-77
2023/04/10 00:20:32;;;;;;;18.08;13.57;;;13.90;66.80;;;;;;5096009;28;20116;-77
2023/04/10 00:22:58;;;;;;;18.52;12.98;;;13.80;67.00;;;;;;5077250;28;20043;-76
2023/04/10 00:25:25;;;;;;;18.27;12.75;;;13.80;67.10;;;;;;5096414;28;20075;-77
2023/04/10 00:27:51;;;;;;;18.08;12.52;;;13.80;67.20;;;;;;5061453;28;20020;-77
2023/04/10 00:30:17;;;;;;;17.02;12.85;;;13.80;67.50;;;;;;5096072;28;20078;-78
2023/04/10 00:32:43;;;;;;;15.98;12.35;;;13.70;67.50;;;;;;5078226;28;20036;-78
2023/04/10 00:35:08;;;;;;;16.55;11.63;;;13.60;67.60;;;;;;5078383;28;20028;-77
2023/04/10 00:37:34;;;;;;;18.08;12.25;;;13.70;67.70;;;;;;5095846;28;20111;-76
2023/04/10 00:40:00;;;;;;;16.27;11.70;;;13.60;67.60;;;;;;5061276;28;20067;-78
2023/04/10 00:42:26;;;;;;;14.75;10.98;;;13.60;67.80;;;;;;5095756;28;20384;-77
2023/04/10 00:44:51;;;;;;;15.73;10.43;;;13.60;67.70;;;;;;5096045;28;20036;-77
2023/04/10 00:47:17;;;;;;;16.23;10.60;;;13.60;67.80;;;;;;5061141;28;20059;-77
2023/04/10 00:49:43;;;;;;;13.55;10.05;;;13.60;68.00;;;;;;5060720;28;20028;-78
2023/04/10 00:52:09;;;;;;;14.43;10.48;;;13.60;68.10;;;;;;5077965;28;20047;-77
2023/04/10 00:54:35;;;;;;;13.65;10.55;;;13.60;68.20;;;;;;5077922;28;20020;-78
2023/04/10 00:57:02;;;;;;;13.52;10.18;;;13.60;68.20;;;;;;5077525;28;20039;-77
2023/04/10 00:59:28;;;;;;;13.90;10.27;;;13.50;68.20;;;;;;5061367;28;20028;-77
2023/04/10 01:01:53;;;;;;;13.35;9.95;;;13.50;68.40;;;;;;5095313;28;20540;-77
2023/04/10 01:04:20;;;;;;;12.77;9.60;;;13.50;68.70;;;;;;5095299;28;20024;-77
2023/04/10 01:06:52;;;;;;;11.13;9.18;;;13.40;68.80;;;;;;5077447;28;20032;-78
2023/04/10 01:09:54;;;;;;;15.00;9.20;;;13.40;69.00;;;;;;5095255;28;20104;-77
2023/04/10 01:12:42;;;;;;;11.75;8.90;;;13.40;69.00;;;;;;5095550;28;20035;-78
2023/04/10 01:15:28;;;;;;;13.40;10.00;;;13.50;69.00;;;;;;5095427;28;20115;-77
2023/04/10 01:18:00;;;;;;;12.77;8.98;;;13.40;68.80;;;;;;5095295;28;20036;-77
2023/04/10 01:20:29;;;;;;;12.30;9.38;;;13.40;69.10;;;;;;5095118;28;20031;-77
2023/04/10 01:23:29;;;;;;;14.57;9.48;;;13.30;69.30;;;;;;5095247;28;20123;-77
2023/04/10 01:26:02;;;;;;;11.88;8.73;;;13.40;69.40;;;;;;5095308;28;20020;-77
2023/04/10 01:28:47;;;;;;;10.13;8.02;;;13.40;69.50;;;;;;5094876;28;20028;-77
2023/04/10 01:31:20;;;;;;;10.15;7.93;;;13.40;69.50;;;;;;5077327;28;20036;-78
2023/04/10 01:33:51;;;;;;;10.23;8.20;;;13.40;70.10;;;;;;5077268;28;20044;-78
2023/04/10 01:36:30;;;;;;;11.45;8.52;;;13.40;69.50;;;;;;5094222;28;20460;-78
2023/04/10 01:38:57;;;;;;;11.15;8.10;;;13.40;69.50;;;;;;5095055;28;20082;-78
2023/04/10 01:41:25;;;;;;;10.95;8.68;;;13.40;69.50;;;;;;5094589;28;20028;-78
2023/04/10 01:43:52;;;;;;;13.43;8.77;;;13.40;69.60;;;;;;5094352;28;20025;-77
2023/04/10 01:46:19;;;;;;;11.52;8.65;;;13.30;69.70;;;;;;5076498;28;20121;-78
2023/04/10 01:48:46;;;;;;;12.13;9.13;;;13.20;70.30;;;;;;5076714;28;20028;-78
2023/04/10 01:51:13;;;;;;;13.80;9.10;;;13.00;70.80;;;;;;5076659;28;20111;-78
2023/04/10 01:53:42;;;;;;;14.45;8.80;;;13.00;70.90;;;;;;5076064;28;20035;-78
2023/04/10 01:56:08;;;;;;;13.15;8.57;;;13.00;70.80;;;;;;5094380;28;20027;-77
2023/04/10 01:58:37;;;;;;;12.93;9.60;;;13.10;70.70;;;;;;5094285;28;20028;-77
2023/04/10 02:01:03;;;;;;;15.45;9.55;;;13.10;70.60;;;;;;5094334;28;20020;-77
2023/04/10 02:03:28;;;;;;;11.65;8.60;;;13.10;70.60;;;;;;5094537;28;20062;-77
2023/04/10 02:06:09;;;;;;;12.43;9.13;;;13.00;70.50;;;;;;5076222;28;20082;-77
2023/04/10 02:09:08;;;;;;;13.77;9.82;;;13.00;70.50;;;;;;5094346;28;20037;-77
2023/04/10 02:11:46;;;;;;;15.68;10.40;;;13.10;70.50;;;;;;5076246;28;20479;-77
2023/04/10 02:14:16;;;;;;;14.60;10.30;;;13.00;70.90;;;;;;5076564;28;20030;-77
2023/04/10 02:16:43;;;;;;;13.45;8.95;;;13.00;70.80;;;;;;5075880;28;20456;-77
2023/04/10 02:19:11;;;;;;;14.50;9.55;;;12.90;70.90;;;;;;5094098;28;20024;-77
2023/04/10 02:21:38;;;;;;;13.57;9.32;;;12.90;71.00;;;;;;5075813;28;20047;-77
2023/04/10 02:24:05;;;;;;;14.00;9.43;;;12.80;71.30;;;;;;5094026;28;20059;-77
2023/04/10 02:26:46;;;;;;;14.93;9.20;;;12.80;71.40;;;;;;5059207;28;20380;-77
2023/04/10 02:29:12;;;;;;;12.35;8.65;;;12.70;71.40;;;;;;5094286;28;20465;-77
2023/04/10 02:31:40;;;;;;;14.90;9.35;;;12.80;71.40;;;;;;5093910;28;20111;-77
2023/04/10 02:34:06;;;;;;;13.68;9.38;;;12.80;71.50;;;;;;5093865;28;20060;-78
2023/04/10 02:36:32;;;;;;;12.13;9.13;;;12.70;71.50;;;;;;5094063;28;20428;-77
2023/04/10 02:38:58;;;;;;;12.27;9.20;;;12.80;71.40;;;;;;5075659;28;20119;-77
2023/04/10 02:41:23;;;;;;;11.38;8.55;;;12.70;71.50;;;;;;5075779;28;20115;-77
2023/04/10 02:43:49;;;;;;;12.88;8.80;;;12.70;71.60;;;;;;5075775;28;20039;-77
2023/04/10 02:46:15;;;;;;;14.60;10.13;;;12.60;71.70;;;;;;5095670;28;20055;-78
2023/04/10 02:48:40;;;;;;;12.77;8.68;;;12.50;71.90;;;;;;5082407;28;20051;-77
2023/04/10 02:51:06;;;;;;;12.40;9.32;;;12.50;72.00;;;;;;5065628;28;20042;-77
2023/04/10 02:53:33;;;;;;;14.05;9.63;;;12.50;72.30;;;;;;5065839;28;20032;-77
2023/04/10 02:55:58;;;;;;;16.30;9.88;;;12.40;72.30;;;;;;5065644;28;20035;-77
2023/04/10 02:58:24;;;;;;;12.80;9.18;;;12.30;72.70;;;;;;5065981;28;20025;-77
2023/04/10 03:00:50;;;;;;;15.85;10.90;;;12.20;73.10;;;;;;5082338;28;20028;-77
2023/04/10 03:03:17;;;;;;;15.45;9.77;;;12.10;73.10;;;;;;5082796;28;20043;-78
2023/04/10 03:05:45;;;;;;;13.10;9.57;;;12.20;73.30;;;;;;5100334;28;20028;-77
2023/04/10 03:08:12;;;;;;;13.70;9.43;;;12.20;73.60;;;;;;5100284;28;20028;-77
2023/04/10 03:10:38;;;;;;;15.15;9.63;;;12.20;73.70;;;;;;5065393;28;20039;-77
2023/04/10 03:13:03;;;;;;;12.32;8.90;;;12.00;73.90;;;;;;5100536;28;20028;-77
2023/04/10 03:15:29;;;;;;;16.52;9.10;;;12.00;74.20;;;;;;5100203;28;20039;-77
2023/04/10 03:17:55;;;;;;;10.15;8.07;;;12.10;73.90;;;;;;5082046;28;20059;-77
2023/04/10 03:20:21;;;;;;;11.00;8.43;;;12.20;73.70;;;;;;5082159;28;20055;-77
2023/04/10 03:22:46;;;;;;;13.15;9.07;;;12.30;73.30;;;;;;5100488;28;20039;-77
2023/04/10 03:25:12;;;;;;;11.00;8.43;;;12.30;73.30;;;;;;5100468;28;20034;-77
2023/04/10 03:27:38;;;;;;;11.80;9.15;;;12.30;73.40;;;;;;5081823;28;20028;-78
2023/04/10 03:30:04;;;;;;;9.82;8.02;;;12.30;73.20;;;;;;5065509;28;20048;-77
2023/04/10 03:32:30;;;;;;;11.23;8.30;;;12.30;73.10;;;;;;5082714;28;20061;-77
2023/04/10 03:34:57;;;;;;;11.05;8.70;;;12.30;72.80;;;;;;5065284;28;20028;-77
2023/04/10 03:37:22;;;;;;;10.52;8.80;;;12.30;72.90;;;;;;5081904;28;20024;-77
2023/04/10 03:39:48;;;;;;;12.95;8.75;;;12.30;73.20;;;;;;5082407;28;20035;-77
2023/04/10 03:42:14;;;;;;;12.15;8.45;;;12.20;73.30;;;;;;5081632;28;20044;-77
2023/04/10 03:44:39;;;;;;;10.52;8.93;;;12.20;73.40;;;;;;5100002;28;20028;-77
2023/04/10 03:47:05;;;;;;;10.63;8.57;;;12.20;73.30;;;;;;5081569;28;20052;-77
2023/04/10 03:49:31;;;;;;;12.10;9.50;;;12.20;73.30;;;;;;5082038;28;20032;-77
2023/04/10 03:51:56;;;;;;;14.13;9.25;;;12.20;73.40;;;;;;5081898;28;20426;-76
2023/04/10 03:54:22;;;;;;;11.90;8.75;;;12.10;73.40;;;;;;5100181;28;20038;-77
2023/04/10 03:56:47;;;;;;;10.82;8.55;;;12.20;73.40;;;;;;5064880;28;20032;-77
2023/04/10 03:59:13;;;;;;;12.60;9.23;;;12.20;73.40;;;;;;5095813;28;20028;-77
2023/04/10 04:01:39;;;;;;;11.82;9.57;;;12.10;73.50;;;;;;5096281;28;20032;-77
2023/04/10 04:04:04;;;;;;;14.35;9.95;;;12.10;73.70;;;;;;5078544;28;20085;-77
2023/04/10 04:06:30;;;;;;;12.20;9.77;;;12.10;73.90;;;;;;5078563;28;20024;-77
2023/04/10 04:08:56;;;;;;;14.68;10.70;;;12.10;74.10;;;;;;5079030;28;20631;-77
2023/04/10 04:11:22;;;;;;;13.98;10.02;;;12.20;74.10;;;;;;5096438;28;20035;-77
2023/04/10 04:13:47;;;;;;;16.00;12.27;;;12.20;74.10;;;;;;5061589;28;20407;-77
2023/04/10 04:16:13;;;;;;;15.00;11.80;;;12.10;74.30;;;;;;5078327;28;20499;-77
2023/04/10 04:18:39;;;;;;;13.65;10.73;;;12.10;74.60;;;;;;5061931;28;20032;-77
2023/04/10 04:21:07;;;;;;;14.45;10.93;;;12.10;74.60;;;;;;5078111;28;20024;-77
2023/04/10 04:23:32;;;;;;;14.13;11.38;;;12.20;74.40;;;;;;5077977;28;20065;-77
2023/04/10 04:25:58;;;;;;;18.92;12.13;;;12.20;74.50;;;;;;5096180;28;20028;-77
2023/04/10 04:28:24;;;;;;;15.25;11.82;;;12.10;74.60;;;;;;5078039;28;20028;-77
2023/04/10 04:30:50;;;;;;;15.98;11.60;;;12.00;74.90;;;;;;5061109;28;20174;-77
2023/04/10 04:33:15;;;;;;;15.00;11.27;;;12.00;75.30;;;;;;5096088;28;20457;-78
2023/04/10 04:35:41;;;;;;;14.35;11.15;;;11.90;75.30;;;;;;5061592;28;20056;-78
2023/04/10 04:38:07;;;;;;;15.02;11.63;;;11.90;75.50;;;;;;5061143;28;20390;-77
2023/04/10 04:40:32;;;;;;;14.25;10.45;;;12.00;75.40;;;;;;5077985;28;20187;-77
2023/04/10 04:42:58;;;;;;;14.18;10.40;;;12.00;75.40;;;;;;5061539;28;20044;-77
2023/04/10 04:45:23;;;;;;;14.95;10.80;;;11.90;75.30;;;;;;5061057;28;20055;-77
2023/04/10 04:47:49;;;;;;;12.18;10.27;;;12.00;75.30;;;;;;5074473;28;20473;-77
2023/04/10 04:50:15;;;;;;;14.15;10.93;;;12.00;75.20;;;;;;5075239;28;20461;-78
2023/04/10 04:52:42;;;;;;;12.82;10.23;;;12.10;75.00;;;;;;5074180;28;20047;-77
2023/04/10 04:55:08;;;;;;;14.52;10.80;;;12.10;74.90;;;;;;5074097;28;20366;-77
2023/04/10 04:57:34;;;;;;;15.70;11.23;;;12.10;74.90;;;;;;5040845;28;20024;-76
2023/04/10 04:59:59;;;;;;;16.77;11.52;;;12.10;74.80;;;;;;5075010;28;20086;-77
2023/04/10 05:02:25;;;;;;;13.68;10.10;;;12.10;74.80;;;;;;5073828;28;20091;-77
2023/04/10 05:04:50;;;;;;;13.65;10.15;;;12.00;75.40;;;;;;5057415;28;20375;-77
2023/04/10 05:07:16;;;;;;;14.50;9.75;;;11.90;74.90;;;;;;5073997;28;20400;-77
2023/04/10 05:09:42;;;;;;;12.25;9.63;;;12.00;74.90;;;;;;5073643;28;20028;-77
2023/04/10 05:12:07;;;;;;;14.82;10.07;;;11.90;74.90;;;;;;5057627;28;20082;-77
2023/04/10 05:14:33;;;;;;;12.40;10.05;;;11.90;74.80;;;;;;5075287;28;20082;-77
2023/04/10 05:16:59;;;;;;;11.95;9.90;;;11.90;74.80;;;;;;5056997;28;20032;-77
2023/04/10 05:19:24;;;;;;;14.55;9.32;;;11.90;74.70;;;;;;5073601;28;20024;-77
2023/04/10 05:21:50;;;;;;;14.35;10.00;;;11.90;74.80;;;;;;5057198;28;20389;-75
2023/04/10 05:24:16;;;;;;;14.25;9.98;;;11.90;74.80;;;;;;5056563;28;20033;-77
2023/04/10 05:26:41;;;;;;;12.88;9.88;;;11.90;74.70;;;;;;5057230;28;20033;-77
2023/04/10 05:29:07;;;;;;;12.50;9.77;;;11.80;74.80;;;;;;5057109;28;20025;-77
2023/04/10 05:31:33;;;;;;;14.75;10.57;;;11.80;74.80;;;;;;5074247;28;20469;-77
2023/04/10 05:33:58;;;;;;;13.40;9.63;;;11.80;74.80;;;;;;5074180;28;20025;-77
2023/04/10 05:36:24;;;;;;;13.50;10.68;;;11.80;74.80;;;;;;5074469;28;20099;-77
2023/04/10 05:38:50;;;;;;;18.67;9.95;;;11.80;74.80;;;;;;5073158;28;20053;-77
2023/04/10 05:41:15;;;;;;;13.50;10.10;;;11.70;75.00;;;;;;5073538;28;20380;-77
2023/04/10 05:43:41;;;;;;;14.85;11.00;;;11.70;75.20;;;;;;5074309;28;20083;-77
2023/04/10 05:46:07;;;;;;;13.20;10.10;;;11.70;75.40;;;;;;5078144;28;20055;-77
2023/04/10 05:48:32;;;;;;;13.43;9.98;;;11.70;75.80;;;;;;5060032;28;20028;-77
2023/04/10 05:50:58;;;;;;;13.82;10.18;;;11.70;75.80;;;;;;5076278;28;20056;-77
2023/04/10 05:53:31;;;;;;;15.75;10.80;;;11.70;75.70;;;;;;5059604;28;20460;-77
2023/04/10 05:56:00;;;;;;;15.77;11.80;;;11.70;75.70;;;;;;5094380;28;20067;-77
2023/04/10 05:58:27;;;;;;;13.15;10.27;;;11.70;75.70;;;;;;5076650;28;20056;-77
2023/04/10 06:00:53;;;;;;;14.65;10.38;;;11.80;75.60;;;;;;5060000;28;20028;-77
2023/04/10 06:03:19;;;;;;;13.60;10.95;;;11.80;75.50;;;;;;5059756;28;20119;-77
2023/04/10 06:05:45;;;;;;;13.35;10.10;;;11.70;76.00;;;;;;5059303;28;20114;-77
2023/04/10 06:08:10;;;;;;;12.63;10.40;;;11.70;76.30;;;;;;5076737;28;20024;-77
2023/04/10 06:10:36;;;;;;;15.65;9.75;;;11.70;76.10;;;;;;5076412;28;20375;-77
2023/04/10 06:13:02;;;;;;;12.85;9.90;;;11.80;76.20;;;;;;5076163;28;20035;-77
2023/04/10 06:15:28;;;;;;;14.65;9.93;;;11.80;76.40;;;;;;5094080;28;20072;-77
2023/04/10 06:17:54;;;;;;;13.50;10.38;;;11.80;76.30;;;;;;5075826;28;20047;-77
2023/04/10 06:20:20;;;;;;;13.90;10.65;;;11.80;76.30;;;;;;5059207;28;20032;-77
2023/04/10 06:22:46;;;;;;;15.52;10.95;;;11.90;76.30;;;;;;5093505;28;20380;-77
2023/04/10 06:25:11;;;;;;;14.77;11.38;;;11.90;76.10;;;;;;5059629;28;20030;-76
2023/04/10 06:27:37;;;;;;;16.08;11.30;;;11.90;76.70;;;;;;5093499;28;20024;-77
2023/04/10 06:30:03;;;;;;;14.85;11.50;;;11.90;76.80;;;;;;5075713;28;20035;-77
2023/04/10 06:32:30;;;;;;;15.15;10.98;;;11.90;77.10;;;;;;5093515;28;20109;-77
2023/04/10 06:34:56;;;;;;;22.48;11.27;;;12.00;77.20;;;;;;5093786;28;20113;-77
2023/04/10 06:37:31;;;;;;;15.50;11.23;;;12.00;77.30;;;;;;5093768;28;20032;-77
2023/04/10 06:40:08;;;;;;;13.55;11.07;;;12.00;77.40;;;;;;5094015;28;20028;-77
2023/04/10 06:42:34;;;;;;;15.38;11.40;;;12.10;77.60;;;;;;5075580;28;20111;-77
2023/04/10 06:45:01;;;;;;;14.30;10.88;;;12.00;78.20;;;;;;5075681;28;20043;-77
2023/04/10 06:47:27;;;;;;;14.48;11.18;;;12.00;78.10;;;;;;5093944;28;20075;-77
2023/04/10 06:49:52;;;;;;;17.00;11.68;;;12.10;78.90;;;;;;5075755;28;20056;-77
2023/04/10 06:52:18;;;;;;;13.80;10.43;;;12.10;78.30;;;;;;5075706;28;20423;-77
2023/04/10 06:54:44;;;;;;;14.52;10.82;;;12.10;78.80;;;;;;5093615;28;20060;-78
2023/04/10 06:57:10;;;;;;;13.90;10.68;;;12.10;78.30;;;;;;5093501;28;20067;-77
2023/04/10 06:59:35;;;;;;;13.77;10.75;;;12.20;78.70;;;;;;5093559;28;20462;-77
2023/04/10 07:02:02;;;;;;;13.02;10.18;;;12.20;78.70;;;;;;5093448;28;20044;-77
2023/04/10 07:04:28;;;;;;;15.98;11.30;;;12.30;78.60;;;;;;5093696;28;20032;-77
2023/04/10 07:06:54;;;;;;;12.30;9.73;;;12.30;78.80;;;;;;5075815;28;20461;-76
2023/04/10 07:09:19;;;;;;;12.45;9.82;;;12.30;78.20;;;;;;5075168;28;20024;-77
2023/04/10 07:11:45;;;;;;;12.45;10.00;;;12.40;78.40;;;;;;5093620;28;20039;-77
2023/04/10 07:14:11;;;;;;;11.32;9.63;;;12.50;77.90;;;;;;5058451;28;20151;-77
2023/04/10 07:16:36;;;;;;;11.18;9.25;;;12.50;77.50;;;;;;5058498;28;20036;-77
2023/04/10 07:19:02;;;;;;;14.50;10.38;;;12.50;77.90;;;;;;5075531;28;20031;-76
2023/04/10 07:21:28;;;;;;;12.88;10.00;;;12.50;78.20;;;;;;5075410;28;20456;-76
2023/04/10 07:23:54;;;;;;;12.57;9.82;;;12.50;78.30;;;;;;5093406;28;20050;-77
2023/04/10 07:26:20;;;;;;;15.43;9.10;;;12.50;78.60;;;;;;5075216;28;20472;-77
2023/04/10 07:28:46;;;;;;;11.77;9.30;;;12.50;77.70;;;;;;5075302;28;20024;-77
2023/04/10 07:31:12;;;;;;;13.57;9.52;;;12.50;78.00;;;;;;5093662;28;20024;-77
2023/04/10 07:33:38;;;;;;;13.40;9.52;;;12.60;78.00;;;;;;5077395;28;20063;-77
2023/04/10 07:36:04;;;;;;;10.73;8.82;;;12.60;77.80;;;;;;5079036;28;20498;-77
2023/04/10 07:38:33;;;;;;;9.98;8.20;;;12.60;77.80;;;;;;5078967;28;20035;-76
2023/04/10 07:40:59;;;;;;;13.18;8.52;;;12.70;77.60;;;;;;5078799;28;20060;-77
2023/04/10 07:43:25;;;;;;;9.50;7.32;;;12.80;77.60;;;;;;5096917;28;20070;-77
2023/04/10 07:45:51;;;;;;;10.63;8.10;;;12.80;77.10;;;;;;5096831;28;20127;-77
2023/04/10 07:48:17;;;;;;;10.15;7.75;;;12.80;76.80;;;;;;5096826;28;20055;-77
2023/04/10 07:50:43;;;;;;;9.65;7.85;;;12.90;75.70;;;;;;5061923;28;20028;-76
2023/04/10 07:53:08;;;;;;;10.43;7.53;;;13.00;75.60;;;;;;5078653;28;20032;-77
2023/04/10 07:55:41;;;;;;;9.85;7.60;;;13.00;75.00;;;;;;5062750;28;20054;-77
2023/04/10 07:58:07;;;;;;;9.38;7.50;;;13.10;75.30;;;;;;5078904;28;20039;-76
2023/04/10 08:00:33;;;;;;;10.52;8.10;;;13.00;74.00;;;;;;5078769;28;20036;-77
2023/04/10 08:02:59;;;;;;;11.05;7.88;;;13.10;74.40;;;;;;5061672;28;20511;-75
2023/04/10 08:05:25;;;;;;;9.75;7.57;;;13.10;73.50;;;;;;5096607;28;20036;-77
2023/04/10 08:07:51;;;;;;;8.48;7.25;;;13.00;73.80;;;;;;5078396;28;20028;-76
2023/04/10 08:10:16;;;;;;;9.43;7.00;;;13.10;73.90;;;;;;5061477;28;20032;-77
2023/04/10 08:12:42;;;;;;;9.80;7.97;;;13.20;73.60;;;;;;5096452;28;20060;-76
2023/04/10 08:15:08;;;;;;;9.70;7.93;;;13.30;74.50;;;;;;5096405;28;20024;-76
2023/04/10 08:17:34;;;;;;;8.35;7.13;;;13.50;75.00;;;;;;5062229;28;20028;-77
2023/04/10 08:19:59;;;;;;;9.73;7.25;;;13.70;75.10;;;;;;5096301;28;20349;-76
2023/04/10 08:22:25;;;;;;;9.02;7.78;;;13.90;73.50;;;;;;5061344;28;20040;-77
2023/04/10 08:24:51;;;;;;;9.55;6.53;;;14.00;72.80;;;;;;5078223;28;20111;-76
2023/04/10 08:27:16;;;;;;;8.43;6.88;;;14.20;72.00;;;;;;5096280;28;20171;-77
2023/04/10 08:29:42;;;;;;;8.70;6.97;;;14.20;70.70;;;;;;5078297;28;20024;-76
2023/04/10 08:32:08;;;;;;;7.50;6.53;;;14.20;70.60;;;;;;5077906;28;20384;-76
2023/04/10 08:34:34;;;;;;;8.07;6.82;;;14.20;71.00;;;;;;5077809;28;20028;-76
2023/04/10 08:37:05;;;;;;;8.65;6.20;;;14.20;70.90;;;;;;5061282;28;20040;-76
2023/04/10 08:39:33;;;;;;;7.70;6.85;;;14.20;71.50;;;;;;5095941;28;20024;-76
2023/04/10 08:41:59;;;;;;;10.02;6.88;;;14.30;70.70;;;;;;5077614;28;20493;-77
2023/04/10 08:44:25;;;;;;;11.23;6.57;;;14.30;71.00;;;;;;5077306;28;20031;-76
2023/04/10 08:46:51;;;;;;;8.18;6.28;;;14.30;71.20;;;;;;5077547;28;20412;-77
2023/04/10 08:49:33;;;;;;;8.13;6.53;;;14.40;71.20;;;;;;5095654;28;20051;-77
2023/04/10 08:52:03;;;;;;;7.80;6.47;;;14.40;71.80;;;;;;5095737;28;20020;-76
2023/04/10 08:54:33;;;;;;;8.38;6.78;;;14.40;71.20;;;;;;5078008;28;20024;-76
2023/04/10 08:57:00;;;;;;;8.90;6.47;;;14.40;71.10;;;;;;5077859;28;20415;-77
2023/04/10 08:59:30;;;;;;;10.52;6.25;;;14.50;70.20;;;;;;5095592;28;20028;-76
2023/04/10 09:01:56;;;;;;;9.35;6.30;;;14.50;71.00;;;;;;5095593;28;20028;-76
2023/04/10 09:04:24;;;;;;;6.68;5.70;;;14.50;71.50;;;;;;5077204;28;20063;-77
2023/04/10 09:06:49;;;;;;;8.10;6.57;;;14.70;71.40;;;;;;5077693;28;20395;-76
2023/04/10 09:09:15;;;;;;;8.52;6.43;;;14.80;70.10;;;;;;5077291;28;20036;-75
2023/04/10 09:11:59;;;;;;;7.28;5.85;;;14.80;69.90;;;;;;5095309;28;20115;-76
2023/04/10 09:14:27;;;;;;;7.38;6.07;;;14.80;70.60;;;;;;5077265;28;20081;-77
2023/04/10 09:17:10;;;;;;;6.85;5.90;;;14.80;69.50;;;;;;5077092;28;20036;-77
2023/04/10 09:19:35;;;;;;;7.32;6.53;;;14.80;69.50;;;;;;5095536;28;20059;-76
2023/04/10 09:22:01;;;;;;;8.15;6.60;;;14.70;69.20;;;;;;5077167;28;20446;-77
2023/04/10 09:24:27;;;;;;;8.63;6.85;;;14.60;69.30;;;;;;5076979;28;20411;-77
2023/04/10 09:26:53;;;;;;;11.15;6.50;;;14.60;69.60;;;;;;5076769;28;20035;-77
2023/04/10 09:29:19;;;;;;;7.97;6.55;;;14.50;70.20;;;;;;5077161;28;20035;-76
2023/04/10 09:31:45;;;;;;;9.88;7.13;;;14.50;71.00;;;;;;5094860;28;20028;-76
2023/04/10 09:34:20;;;;;;;7.00;6.30;;;14.60;70.70;;;;;;5076571;28;20393;-77
2023/04/10 09:37:00;;;;;;;8.00;6.20;;;14.60;70.20;;;;;;5095624;28;20028;-76
2023/04/10 09:39:33;;;;;;;7.70;6.30;;;14.70;70.70;;;;;;5076790;28;20115;-77
2023/04/10 09:41:59;;;;;;;7.85;6.53;;;14.70;70.60;;;;;;5076892;28;20028;-76
2023/04/10 09:44:30;;;;;;;8.15;6.55;;;14.70;69.90;;;;;;5076351;28;20456;-75
2023/04/10 09:46:57;;;;;;;8.18;5.80;;;14.70;70.10;;;;;;5076696;28;20537;-77
2023/04/10 09:49:23;;;;;;;7.55;6.05;;;14.60;70.30;;;;;;5094830;28;20137;-77
2023/04/10 09:51:49;;;;;;;9.85;6.18;;;14.60;70.20;;;;;;5059801;28;20461;-77
2023/04/10 09:54:15;;;;;;;7.88;6.13;;;14.60;70.00;;;;;;5076413;28;20027;-77
2023/04/10 09:56:42;;;;;;;8.13;6.13;;;14.60;70.50;;;;;;5075457;28;20068;-77
2023/04/10 09:59:09;;;;;;;6.35;5.53;;;14.50;70.60;;;;;;5076190;28;20123;-76
2023/04/10 10:01:38;;;;;;;7.47;5.75;;;14.60;71.20;;;;;;5075987;28;20035;-77
2023/04/10 10:04:04;;;;;;;9.48;5.70;;;14.50;70.80;;;;;;5076649;28;20031;-77
2023/04/10 10:06:31;;;;;;;8.80;6.05;;;14.50;71.30;;;;;;5059640;28;20418;-77
2023/04/10 10:09:06;;;;;;;7.72;5.78;;;14.50;71.50;;;;;;5094192;28;20101;-77
2023/04/10 10:11:34;;;;;;;8.52;6.05;;;14.50;71.10;;;;;;5076557;28;20035;-77
2023/04/10 10:14:05;;;;;;;8.27;5.72;;;14.60;71.20;;;;;;5094350;28;20497;-76
2023/04/10 10:16:45;;;;;;;11.13;5.60;;;14.60;71.30;;;;;;5094191;28;20145;-77
2023/04/10 10:19:19;;;;;;;7.00;5.18;;;14.50;70.30;;;;;;5093792;28;20376;-77
2023/04/10 10:21:45;;;;;;;9.95;6.20;;;14.50;71.60;;;;;;5094011;28;20020;-76
2023/04/10 10:24:12;;;;;;;7.57;5.85;;;14.60;71.60;;;;;;5094144;28;20040;-77
2023/04/10 10:26:39;;;;;;;8.82;5.10;;;14.60;71.00;;;;;;5093572;28;20081;-77
2023/04/10 10:29:09;;;;;;;6.90;5.20;;;14.60;70.40;;;;;;5094118;28;20032;-77
2023/04/10 10:31:36;;;;;;;8.43;5.35;;;14.70;71.20;;;;;;5094013;28;20028;-76
2023/04/10 10:34:04;;;;;;;6.85;5.00;;;14.70;71.60;;;;;;5075243;28;20028;-77
2023/04/10 10:36:33;;;;;;;6.90;4.55;;;14.80;72.00;;;;;;5093970;28;20036;-76
2023/04/10 10:39:18;;;;;;;6.85;4.82;;;14.80;71.40;;;;;;5076339;28;20035;-76
2023/04/10 10:41:50;;;;;;;8.45;4.40;;;14.90;71.80;;;;;;5075657;28;20028;-76
2023/04/10 10:44:31;;;;;;;7.22;4.88;;;15.00;71.00;;;;;;5093718;28;20028;-76
2023/04/10 10:47:19;;;;;;;5.15;4.65;;;15.00;70.80;;;;;;5075809;28;20056;-76
2023/04/10 10:49:52;;;;;;;5.43;4.60;;;15.10;71.10;;;;;;5093922;28;20081;-75
2023/04/10 10:52:37;;;;;;;6.13;4.35;;;15.10;70.30;;;;;;5075426;28;20028;-75
2023/04/10 10:55:21;;;;;;;4.65;3.95;;;15.10;71.20;;;;;;5093278;28;20020;-76
2023/04/10 10:57:47;;;;;;;5.80;4.78;;;15.20;71.00;;;;;;5075450;28;20211;-77
2023/04/10 11:00:14;;;;;;;7.05;4.35;;;15.20;70.40;;;;;;5093577;28;20025;-76
2023/04/10 11:02:40;;;;;;;5.38;4.50;;;15.30;69.90;;;;;;5093413;28;20058;-76
2023/04/10 11:05:06;;;;;;;7.82;4.95;;;15.30;70.60;;;;;;5058619;28;20036;-76
2023/04/10 11:08:03;;;;;;;4.65;4.10;;;15.40;70.30;;;;;;5095258;28;20029;-76
2023/04/10 11:11:04;;;;;;;4.88;4.38;;;15.50;70.70;;;;;;5097436;28;20055;-76
2023/04/10 11:13:30;;;;;;;4.90;4.25;;;15.50;69.80;;;;;;5079525;28;20124;-75
2023/04/10 11:15:57;;;;;;;4.93;4.22;;;15.60;70.10;;;;;;5079563;28;20031;-76
2023/04/10 11:18:45;;;;;;;5.40;4.57;;;15.70;70.80;;;;;;5097243;28;20486;-75
2023/04/10 11:21:21;;;;;;;4.10;3.65;;;15.80;70.90;;;;;;5097424;28;20024;-76
2023/04/10 11:23:49;;;;;;;6.18;4.57;;;15.90;71.20;;;;;;5097545;28;20486;-76
2023/04/10 11:26:40;;;;;;;5.68;4.35;;;16.00;69.90;;;;;;5097012;28;20060;-76
2023/04/10 11:29:14;;;;;;;5.50;4.95;;;16.20;70.00;;;;;;5079565;28;20032;-76
2023/04/10 11:31:42;;;;;;;4.80;3.90;;;16.30;69.60;;;;;;5078917;28;20375;-76
2023/04/10 11:34:11;;;;;;;3.88;3.40;;;16.50;70.90;;;;;;5097108;28;20039;-77
2023/04/10 11:36:41;;;;;;;6.95;3.42;;;16.60;70.30;;;;;;5079303;28;20028;-77
2023/04/10 11:39:12;;;;;;;3.90;3.53;;;16.80;70.60;;;;;;5062070;28;20050;-76
2023/04/10 11:41:40;;;;;;;7.30;3.30;;;16.90;70.40;;;;;;5096930;28;20024;-76
2023/04/10 11:44:09;;;;;;;3.90;3.50;;;17.10;68.50;;;;;;5097123;28;20046;-75
2023/04/10 11:46:40;;;;;;;5.85;3.10;;;17.20;66.70;;;;;;5078448;28;20127;-77
2023/04/10 11:49:08;;;;;;;3.42;2.80;;;17.10;67.60;;;;;;5096570;28;20488;-77
2023/04/10 11:51:35;;;;;;;7.82;4.18;;;17.10;67.10;;;;;;5078388;28;20448;-76
2023/04/10 11:54:08;;;;;;;3.85;3.45;;;17.10;67.50;;;;;;5078161;28;20119;-77
2023/04/10 11:56:35;;;;;;;4.57;3.60;;;17.00;66.60;;;;;;5097097;28;20033;-77
2023/04/10 11:59:05;;;;;;;4.65;3.70;;;17.00;67.00;;;;;;5096586;28;20037;-76
2023/04/10 12:01:31;;;;;;;3.85;3.10;;;16.90;67.50;;;;;;5078348;28;20119;-76
2023/04/10 12:03:57;;;;;;;7.60;3.85;;;16.90;68.30;;;;;;5078767;28;20119;-77
2023/04/10 12:06:23;;;;;;;4.85;3.80;;;16.90;68.00;;;;;;5061847;28;20085;-77
2023/04/10 12:08:49;;;;;;;5.15;3.80;;;16.80;67.80;;;;;;5078380;28;20020;-77
2023/04/10 12:11:27;;;;;;;5.70;3.72;;;16.80;69.20;;;;;;5061954;28;20109;-76
2023/04/10 12:13:57;;;;;;;10.15;3.97;;;16.80;68.80;;;;;;5078279;28;20028;-76
2023/04/10 12:16:23;;;;;;;5.13;3.70;;;16.70;68.70;;;;;;5078664;28;20085;-77
2023/04/10 12:18:49;;;;;;;4.28;3.78;;;16.80;69.50;;;;;;5095347;28;20116;-76
2023/04/10 12:21:15;;;;;;;5.07;3.40;;;16.80;69.10;;;;;;5096488;28;20450;-77
2023/04/10 12:23:41;;;;;;;4.50;3.22;;;16.80;69.10;;;;;;5095755;28;20035;-77
2023/04/10 12:26:15;;;;;;;5.22;2.90;;;16.80;69.40;;;;;;5096193;28;20048;-76
2023/04/10 12:28:52;;;;;;;3.20;2.90;;;16.90;70.00;;;;;;5095938;28;20028;-77
2023/04/10 12:31:26;;;;;;;2.75;2.50;;;17.00;68.70;;;;;;5077863;28;20123;-77
2023/04/10 12:33:56;;;;;;;2.50;2.22;;;17.00;68.20;;;;;;5095676;28;20380;-77
2023/04/10 12:36:23;;;;;;;3.20;2.53;;;17.00;67.80;;;;;;5096502;28;20066;-77
2023/04/10 12:38:49;;;;;;;4.63;2.20;;;17.00;67.60;;;;;;5095568;28;20134;-77
2023/04/10 12:41:31;;;;;;;3.28;2.08;;;17.00;68.40;;;;;;5095788;28;20469;-76
2023/04/10 12:44:10;;;;;;;2.72;2.20;;;17.00;67.60;;;;;;5095665;28;20036;-77